Time;durP1;ratioP1;P1;durP2;ratioP2;P2;SDS_P1;SDS_P2;PMS_P1;PMS_P2;Temp;Humidity;BMP_temperature;BMP_pressure;BME280_temperature;BME280_humidity;BME280_pressure;Samples;Min_cycle;Max_cycle;Signal;HPM_P1;HPM_P2
2023/04/23 00:01:59;;;;;;;35.75;24.05;;;13.10;99.90;;;;;;4154308;28;20041;-69
2023/04/23 00:04:00;;;;;;;39.38;26.40;;;13.10;99.90;;;;;;4172374;28;20067;-69
2023/04/23 00:06:06;;;;;;;39.00;25.83;;;13.10;99.90;;;;;;4173205;28;20068;-69
2023/04/23 00:08:09;;;;;;;40.70;26.65;;;13.10;99.90;;;;;;4173196;28;20040;-69
2023/04/23 00:10:11;;;;;;;39.83;25.48;;;13.10;99.90;;;;;;4174033;28;20518;-71
2023/04/23 00:12:12;;;;;;;43.90;27.38;;;13.10;99.90;;;;;;4173006;28;20025;-69
2023/04/23 00:14:13;;;;;;;40.53;26.40;;;13.10;99.90;;;;;;4170364;28;20041;-69
2023/04/23 00:16:14;;;;;;;39.13;25.80;;;13.10;99.90;;;;;;4173657;28;20480;-69
2023/04/23 00:18:15;;;;;;;36.63;24.92;;;13.10;99.90;;;;;;4175593;28;20112;-69
2023/04/23 00:20:16;;;;;;;42.20;26.92;;;13.10;99.90;;;;;;4154738;28;20538;-69
2023/04/23 00:22:19;;;;;;;39.90;26.63;;;13.10;99.90;;;;;;4169738;28;20034;-69
2023/04/23 00:24:19;;;;;;;39.30;26.25;;;13.10;99.90;;;;;;4173646;28;20049;-69
2023/04/23 00:26:20;;;;;;;41.83;26.70;;;13.10;99.90;;;;;;4174773;28;20033;-69
2023/04/23 00:28:20;;;;;;;38.30;26.73;;;13.00;99.90;;;;;;4176686;28;20037;-68
2023/04/23 00:30:21;;;;;;;40.17;26.00;;;13.00;99.90;;;;;;4176165;28;20049;-69
2023/04/23 00:32:22;;;;;;;41.00;27.02;;;13.00;99.90;;;;;;4161613;28;20034;-69
2023/04/23 00:34:22;;;;;;;41.72;27.10;;;13.00;99.90;;;;;;4176210;28;20043;-69
2023/04/23 00:36:24;;;;;;;44.35;27.40;;;13.00;99.90;;;;;;4153301;28;20032;-69
2023/04/23 00:38:25;;;;;;;43.15;27.63;;;13.00;99.90;;;;;;4172769;28;20029;-68
2023/04/23 00:40:26;;;;;;;40.78;26.65;;;13.00;99.90;;;;;;4176388;28;20040;-69
2023/04/23 00:42:27;;;;;;;39.75;25.63;;;12.90;99.90;;;;;;4175512;28;20065;-69
2023/04/23 00:44:27;;;;;;;41.35;27.00;;;12.90;99.90;;;;;;4176832;28;20041;-69
2023/04/23 00:46:28;;;;;;;36.17;24.70;;;12.90;99.90;;;;;;4174694;28;20529;-69
2023/04/23 00:48:29;;;;;;;41.97;27.05;;;12.90;99.90;;;;;;4175962;28;20116;-69
2023/04/23 00:50:29;;;;;;;39.72;26.63;;;12.90;99.90;;;;;;4176473;28;20029;-69
2023/04/23 00:52:30;;;;;;;38.03;26.08;;;12.80;99.90;;;;;;4174686;28;20033;-69
2023/04/23 00:54:31;;;;;;;36.97;24.08;;;12.80;99.90;;;;;;4175087;28;20098;-69
2023/04/23 00:56:32;;;;;;;33.97;23.38;;;12.80;99.90;;;;;;4176038;28;20040;-69
2023/04/23 00:58:33;;;;;;;33.08;22.38;;;12.70;99.90;;;;;;4177110;28;20033;-69
2023/04/23 01:00:43;;;;;;;34.63;23.02;;;12.80;99.90;;;;;;4175725;28;20053;-69
2023/04/23 01:02:44;;;;;;;35.33;23.98;;;12.80;99.90;;;;;;4170720;28;20036;-69
2023/04/23 01:04:49;;;;;;;35.88;24.52;;;12.70;99.90;;;;;;4156600;28;20045;-69
2023/04/23 01:06:50;;;;;;;34.63;23.30;;;12.70;99.90;;;;;;4171880;28;20048;-68
2023/04/23 01:08:51;;;;;;;38.25;24.75;;;12.70;99.90;;;;;;4176491;28;20037;-68
2023/04/23 01:10:53;;;;;;;34.03;22.58;;;12.70;99.90;;;;;;4175843;28;20116;-68
2023/04/23 01:12:54;;;;;;;32.33;22.77;;;12.70;99.90;;;;;;4174557;28;20482;-70
2023/04/23 01:14:55;;;;;;;35.28;22.25;;;12.60;99.90;;;;;;4176764;28;20095;-69
2023/04/23 01:16:55;;;;;;;32.15;22.10;;;12.60;99.90;;;;;;4175483;28;20041;-69
2023/04/23 01:18:57;;;;;;;31.48;20.63;;;12.60;99.90;;;;;;4176085;28;20052;-69
2023/04/23 01:20:58;;;;;;;32.70;21.58;;;12.50;99.90;;;;;;4171699;28;20037;-69
2023/04/23 01:22:58;;;;;;;30.17;20.67;;;12.50;99.90;;;;;;4173250;28;20052;-68
2023/04/23 01:24:59;;;;;;;37.50;22.85;;;12.40;99.90;;;;;;4176396;28;20060;-69
2023/04/23 01:27:01;;;;;;;32.20;20.88;;;12.50;99.90;;;;;;4175212;28;20087;-69
2023/04/23 01:29:02;;;;;;;30.73;20.55;;;12.40;99.90;;;;;;4176968;28;20068;-69
2023/04/23 01:31:03;;;;;;;28.85;20.20;;;12.40;99.90;;;;;;4174988;28;20400;-69
2023/04/23 01:33:05;;;;;;;30.70;19.23;;;12.40;99.90;;;;;;4174124;28;20033;-68
2023/04/23 01:35:07;;;;;;;26.50;18.30;;;12.40;99.90;;;;;;4175583;28;20049;-69
2023/04/23 01:37:08;;;;;;;26.70;18.03;;;12.40;99.90;;;;;;4174866;28;20049;-69
2023/04/23 01:39:09;;;;;;;28.63;18.30;;;12.40;99.90;;;;;;4173441;28;20411;-68
2023/04/23 01:41:09;;;;;;;27.30;18.30;;;12.40;99.90;;;;;;4172903;28;20038;-68
2023/04/23 01:43:10;;;;;;;26.70;19.25;;;12.40;99.90;;;;;;4175130;28;20036;-69
2023/04/23 01:45:11;;;;;;;27.10;17.90;;;12.40;99.90;;;;;;4175099;28;20376;-69
2023/04/23 01:47:11;;;;;;;28.95;19.15;;;12.40;99.90;;;;;;4175929;28;20033;-68
2023/04/23 01:49:12;;;;;;;28.30;18.42;;;12.40;99.90;;;;;;4176913;28;20510;-68
2023/04/23 01:51:13;;;;;;;28.00;19.30;;;12.40;99.90;;;;;;4172670;28;20468;-68
2023/04/23 01:53:13;;;;;;;29.00;19.42;;;12.40;99.90;;;;;;4173469;28;20163;-68
2023/04/23 01:55:14;;;;;;;25.27;17.08;;;12.40;99.90;;;;;;4175293;28;20030;-69
2023/04/23 01:57:15;;;;;;;28.00;17.73;;;12.40;99.90;;;;;;4175925;28;20048;-68
2023/04/23 01:59:15;;;;;;;25.77;17.48;;;12.30;99.90;;;;;;4176018;28;20037;-68
2023/04/23 02:01:16;;;;;;;26.60;18.05;;;12.30;99.90;;;;;;4172454;28;20033;-68
2023/04/23 02:03:17;;;;;;;24.83;17.00;;;12.30;99.90;;;;;;4171218;28;20033;-68
2023/04/23 02:05:18;;;;;;;23.35;16.35;;;12.30;99.90;;;;;;4173694;28;20033;-69
2023/04/23 02:07:19;;;;;;;25.33;17.08;;;12.30;99.90;;;;;;4175997;28;20037;-69
2023/04/23 02:09:20;;;;;;;24.75;16.98;;;12.30;99.90;;;;;;4172322;28;20051;-68
2023/04/23 02:11:20;;;;;;;25.73;17.17;;;12.30;99.90;;;;;;4173140;28;20388;-68
2023/04/23 02:13:21;;;;;;;24.67;16.55;;;12.30;99.90;;;;;;4174885;28;20443;-68
2023/04/23 02:15:21;;;;;;;25.10;17.90;;;12.30;99.90;;;;;;4173926;28;20041;-69
2023/04/23 02:17:22;;;;;;;24.70;18.00;;;12.20;99.90;;;;;;4176802;28;20029;-68
2023/04/23 02:19:23;;;;;;;26.88;17.88;;;12.20;99.90;;;;;;4176007;28;20029;-69
2023/04/23 02:21:25;;;;;;;24.52;17.45;;;12.20;99.90;;;;;;4173376;28;20083;-68
2023/04/23 02:23:25;;;;;;;23.50;16.33;;;12.20;99.90;;;;;;4175906;28;20049;-68
2023/04/23 02:25:26;;;;;;;29.02;18.42;;;12.10;99.90;;;;;;4172347;28;20288;-68
2023/04/23 02:27:26;;;;;;;26.77;17.98;;;12.10;99.90;;;;;;4175086;28;20360;-68
2023/04/23 02:29:27;;;;;;;28.35;18.23;;;12.10;99.90;;;;;;4174204;28;20037;-68
2023/04/23 02:31:28;;;;;;;25.55;17.33;;;12.00;99.90;;;;;;4173135;28;20178;-68
2023/04/23 02:33:28;;;;;;;26.75;17.85;;;12.00;99.90;;;;;;4173406;28;20033;-68
2023/04/23 02:35:30;;;;;;;27.63;18.50;;;12.00;99.90;;;;;;4174154;28;20048;-69
2023/04/23 02:37:31;;;;;;;24.05;17.23;;;11.90;99.90;;;;;;4158417;28;20029;-68
2023/04/23 02:39:32;;;;;;;24.05;16.63;;;11.90;99.90;;;;;;4173878;28;20065;-68
2023/04/23 02:41:33;;;;;;;25.00;17.00;;;11.90;99.90;;;;;;4172756;28;20041;-68
2023/04/23 02:43:33;;;;;;;24.08;16.70;;;11.80;99.90;;;;;;4175905;28;20135;-69
2023/04/23 02:45:34;;;;;;;22.45;15.93;;;11.80;99.90;;;;;;4173384;28;20033;-68
2023/04/23 02:47:35;;;;;;;24.17;17.27;;;11.70;99.90;;;;;;4175035;28;20045;-68
2023/04/23 02:49:36;;;;;;;27.00;17.98;;;11.70;99.90;;;;;;4174127;28;20029;-68
2023/04/23 02:51:36;;;;;;;21.70;14.88;;;11.70;99.90;;;;;;4171648;28;20468;-68
2023/04/23 02:53:37;;;;;;;23.20;16.13;;;11.70;99.90;;;;;;4173262;28;20374;-69
2023/04/23 02:55:38;;;;;;;24.52;16.40;;;11.60;99.90;;;;;;4173597;28;20037;-68
2023/04/23 02:57:38;;;;;;;24.02;16.67;;;11.60;99.90;;;;;;4176412;28;20033;-68
2023/04/23 02:59:39;;;;;;;25.05;16.83;;;11.50;99.90;;;;;;4174956;28;20041;-69
2023/04/23 03:01:40;;;;;;;23.98;15.70;;;11.40;99.90;;;;;;4171788;28;20026;-68
2023/04/23 03:03:40;;;;;;;23.65;15.52;;;11.40;99.90;;;;;;4174870;28;20041;-68
2023/04/23 03:05:41;;;;;;;24.42;16.23;;;11.40;99.90;;;;;;4156197;28;20052;-69
2023/04/23 03:07:42;;;;;;;24.25;17.20;;;11.40;99.90;;;;;;4174260;28;20048;-68
2023/04/23 03:09:43;;;;;;;23.38;15.93;;;11.30;99.90;;;;;;4174139;28;20033;-68
2023/04/23 03:11:43;;;;;;;24.85;16.48;;;11.30;99.90;;;;;;4169698;28;20542;-68
2023/04/23 03:13:44;;;;;;;21.73;15.30;;;11.30;99.90;;;;;;4175593;28;20057;-68
2023/04/23 03:15:45;;;;;;;23.98;15.88;;;11.30;99.90;;;;;;4174016;28;20480;-68
2023/04/23 03:17:45;;;;;;;23.42;17.05;;;11.30;99.90;;;;;;4171406;28;20090;-68
2023/04/23 03:19:46;;;;;;;24.55;16.15;;;11.20;99.90;;;;;;4174424;28;20051;-68
2023/04/23 03:21:46;;;;;;;24.90;16.88;;;11.10;99.90;;;;;;4172832;28;20045;-68
2023/04/23 03:23:47;;;;;;;24.67;16.83;;;11.10;99.90;;;;;;4174320;28;20080;-68
2023/04/23 03:25:47;;;;;;;25.67;17.23;;;11.10;99.90;;;;;;4173538;28;20045;-68
2023/04/23 03:27:48;;;;;;;22.58;15.73;;;11.00;99.90;;;;;;4173711;28;20076;-68
2023/04/23 03:29:49;;;;;;;24.98;16.30;;;11.00;99.90;;;;;;4175885;28;20460;-68
2023/04/23 03:31:49;;;;;;;21.42;15.07;;;11.00;99.90;;;;;;4172831;28;20529;-68
2023/04/23 03:33:50;;;;;;;19.38;14.55;;;11.00;99.90;;;;;;4173521;28;20116;-68
2023/04/23 03:35:50;;;;;;;22.48;15.93;;;11.10;99.90;;;;;;4169549;28;20055;-68
2023/04/23 03:37:51;;;;;;;22.98;15.43;;;11.10;99.90;;;;;;4175178;28;20044;-68
2023/04/23 03:39:52;;;;;;;23.90;15.85;;;11.10;99.90;;;;;;4174867;28;20099;-68
2023/04/23 03:41:52;;;;;;;21.63;16.40;;;11.10;99.90;;;;;;4170112;28;20383;-68
2023/04/23 03:43:53;;;;;;;23.92;17.02;;;11.10;99.90;;;;;;4155298;28;20049;-68
2023/04/23 03:45:54;;;;;;;25.95;17.67;;;11.10;99.90;;;;;;4172130;28;20059;-68
2023/04/23 03:47:54;;;;;;;26.85;18.15;;;11.00;99.90;;;;;;4170664;28;20033;-68
2023/04/23 03:49:55;;;;;;;23.55;17.52;;;11.00;99.90;;;;;;4170623;28;20048;-68
2023/04/23 03:51:56;;;;;;;24.60;16.60;;;11.00;99.90;;;;;;4166579;28;20076;-68
2023/04/23 03:53:56;;;;;;;23.58;16.50;;;11.00;99.90;;;;;;4175125;28;20706;-68
2023/04/23 03:55:57;;;;;;;24.65;16.98;;;11.00;99.90;;;;;;4171940;28;20055;-68
2023/04/23 03:58:00;;;;;;;24.35;17.17;;;10.90;99.90;;;;;;4173499;28;20103;-68
2023/04/23 04:00:01;;;;;;;23.73;16.95;;;11.00;99.90;;;;;;4175869;28;20037;-68
2023/04/23 04:02:03;;;;;;;22.27;15.75;;;11.00;99.90;;;;;;4171565;28;20072;-68
2023/04/23 04:04:03;;;;;;;19.90;14.55;;;11.00;99.90;;;;;;4177858;28;20594;-68
2023/04/23 04:06:04;;;;;;;22.38;14.65;;;11.00;99.90;;;;;;4176835;28;20049;-68
2023/04/23 04:08:05;;;;;;;22.63;15.43;;;11.10;99.90;;;;;;4178450;28;20040;-68
2023/04/23 04:10:06;;;;;;;22.27;15.48;;;11.10;99.90;;;;;;4177068;28;20102;-67
2023/04/23 04:12:07;;;;;;;24.27;16.52;;;11.10;99.90;;;;;;4175144;28;20108;-67
2023/04/23 04:14:07;;;;;;;23.48;15.35;;;11.10;99.90;;;;;;4178040;28;20076;-67
2023/04/23 04:16:08;;;;;;;22.33;15.70;;;11.10;99.90;;;;;;4158155;28;20033;-68
2023/04/23 04:18:08;;;;;;;23.60;15.40;;;11.10;99.90;;;;;;4177621;28;20411;-67
2023/04/23 04:20:12;;;;;;;23.58;15.10;;;11.10;99.90;;;;;;4177885;28;20116;-68
2023/04/23 04:22:13;;;;;;;22.85;15.30;;;11.10;99.90;;;;;;4173215;28;20377;-67
2023/04/23 04:24:14;;;;;;;22.50;16.02;;;11.10;99.90;;;;;;4175478;28;20095;-67
2023/04/23 04:26:15;;;;;;;22.65;16.35;;;11.10;99.90;;;;;;4176218;28;20033;-67
2023/04/23 04:28:16;;;;;;;24.15;16.83;;;11.20;99.90;;;;;;4159094;28;20480;-67
2023/04/23 04:30:17;;;;;;;23.25;16.52;;;11.10;99.90;;;;;;4174655;28;20041;-67
2023/04/23 04:32:18;;;;;;;22.02;16.20;;;11.10;99.90;;;;;;4176389;28;20033;-67
2023/04/23 04:34:19;;;;;;;23.00;16.27;;;11.10;99.90;;;;;;4177776;28;20487;-67
2023/04/23 04:36:19;;;;;;;22.23;15.60;;;11.10;99.90;;;;;;4175026;28;20115;-67
2023/04/23 04:38:21;;;;;;;21.00;15.25;;;11.10;99.90;;;;;;4178063;28;20036;-67
2023/04/23 04:40:22;;;;;;;22.17;16.13;;;11.10;99.90;;;;;;4177182;28;20529;-67
2023/04/23 04:42:22;;;;;;;24.17;15.93;;;11.10;99.90;;;;;;4174082;28;20083;-68
2023/04/23 04:44:24;;;;;;;21.02;15.23;;;11.10;99.90;;;;;;4153788;28;20057;-66
2023/04/23 04:46:31;;;;;;;23.52;15.27;;;11.20;99.90;;;;;;4175088;28;20041;-68
2023/04/23 04:48:32;;;;;;;22.50;16.25;;;11.20;99.90;;;;;;4173036;28;20038;-67
2023/04/23 04:50:32;;;;;;;22.27;16.35;;;11.10;99.90;;;;;;4174881;28;20041;-67
2023/04/23 04:52:33;;;;;;;22.70;16.23;;;11.20;99.90;;;;;;4176215;28;20032;-67
2023/04/23 04:54:34;;;;;;;21.55;15.35;;;11.20;99.90;;;;;;4177397;28;20118;-67
2023/04/23 04:56:34;;;;;;;22.27;15.88;;;11.20;99.90;;;;;;4174930;28;20079;-67
2023/04/23 04:58:35;;;;;;;21.77;16.05;;;11.30;99.90;;;;;;4176044;28;20042;-67
2023/04/23 05:00:35;;;;;;;22.10;14.85;;;11.30;99.90;;;;;;4171195;28;20480;-67
2023/04/23 05:02:36;;;;;;;23.05;16.52;;;11.30;99.90;;;;;;4176352;28;20036;-67
2023/04/23 05:04:36;;;;;;;20.83;15.15;;;11.30;99.90;;;;;;4176278;28;20380;-67
2023/04/23 05:06:37;;;;;;;22.17;15.88;;;11.40;99.90;;;;;;4177130;28;20029;-67
2023/04/23 05:08:38;;;;;;;23.00;16.58;;;11.40;99.90;;;;;;4177717;28;20041;-67
2023/04/23 05:10:38;;;;;;;23.63;16.58;;;11.30;99.90;;;;;;4176547;28;20032;-67
2023/04/23 05:12:42;;;;;;;24.80;17.92;;;11.40;99.90;;;;;;4174938;28;20484;-67
2023/04/23 05:14:42;;;;;;;24.38;17.15;;;11.40;99.90;;;;;;4177318;28;20057;-67
2023/04/23 05:16:43;;;;;;;24.35;16.80;;;11.40;99.90;;;;;;4173279;28;20160;-67
2023/04/23 05:18:43;;;;;;;22.42;16.70;;;11.30;99.90;;;;;;4176286;28;20037;-67
2023/04/23 05:20:44;;;;;;;22.20;16.05;;;11.40;99.90;;;;;;4174278;28;20051;-67
2023/04/23 05:22:45;;;;;;;22.60;15.65;;;11.40;99.90;;;;;;4168212;28;20044;-67
2023/04/23 05:24:45;;;;;;;21.95;15.40;;;11.50;99.90;;;;;;4172302;28;20140;-67
2023/04/23 05:26:46;;;;;;;22.48;16.30;;;11.40;99.90;;;;;;4175726;28;20040;-67
2023/04/23 05:28:46;;;;;;;22.42;15.13;;;11.50;99.90;;;;;;4175529;28;20128;-67
2023/04/23 05:30:48;;;;;;;22.52;15.88;;;11.50;99.90;;;;;;4173351;28;20033;-67
2023/04/23 05:32:49;;;;;;;19.48;14.43;;;11.50;99.90;;;;;;4173952;28;20082;-67
2023/04/23 05:34:49;;;;;;;21.92;15.88;;;11.60;99.90;;;;;;4172610;28;20480;-67
2023/04/23 05:36:50;;;;;;;19.85;14.23;;;11.60;99.90;;;;;;4175313;28;20041;-67
2023/04/23 05:38:50;;;;;;;19.38;14.32;;;11.60;99.90;;;;;;4176784;28;20037;-67
2023/04/23 05:40:52;;;;;;;20.67;14.77;;;11.60;99.90;;;;;;4175537;28;20041;-68
2023/04/23 05:42:52;;;;;;;19.42;13.63;;;11.60;99.90;;;;;;4157767;28;20083;-67
2023/04/23 05:44:53;;;;;;;18.20;13.52;;;11.60;99.90;;;;;;4174834;28;20086;-67
2023/04/23 05:46:53;;;;;;;18.25;13.05;;;11.70;99.90;;;;;;4171102;28;20048;-67
2023/04/23 05:48:54;;;;;;;16.42;12.32;;;11.60;99.90;;;;;;4176880;28;20048;-67
2023/04/23 05:50:54;;;;;;;19.52;13.00;;;11.70;99.90;;;;;;4175499;28;20037;-67
2023/04/23 05:52:55;;;;;;;14.63;11.35;;;11.70;99.90;;;;;;4173374;28;20041;-67
2023/04/23 05:54:56;;;;;;;15.73;11.43;;;11.80;99.90;;;;;;4173623;28;20040;-67
2023/04/23 05:56:56;;;;;;;16.52;11.88;;;11.80;99.90;;;;;;4171889;28;20066;-67
2023/04/23 05:58:57;;;;;;;15.15;10.45;;;11.80;99.90;;;;;;4175173;28;20036;-67
2023/04/23 06:00:58;;;;;;;17.55;11.38;;;11.80;99.90;;;;;;4173982;28;20029;-67
2023/04/23 06:02:58;;;;;;;16.20;11.23;;;11.80;99.90;;;;;;4172186;28;20471;-67
2023/04/23 06:04:59;;;;;;;16.02;11.50;;;11.80;99.90;;;;;;4173139;28;20136;-67
2023/04/23 06:06:59;;;;;;;15.90;11.63;;;11.80;99.90;;;;;;4155945;28;20404;-67
2023/04/23 06:09:00;;;;;;;15.02;10.70;;;11.90;99.90;;;;;;4175409;28;20037;-67
2023/04/23 06:11:01;;;;;;;13.98;10.93;;;11.90;99.90;;;;;;4170019;28;20034;-67
2023/04/23 06:13:01;;;;;;;13.15;10.20;;;11.90;99.90;;;;;;4173448;28;20090;-66
2023/04/23 06:15:02;;;;;;;15.00;10.77;;;11.90;99.90;;;;;;4174488;28;20036;-67
2023/04/23 06:17:03;;;;;;;16.00;11.30;;;12.00;99.90;;;;;;4171327;28;20053;-67
2023/04/23 06:19:03;;;;;;;14.98;10.70;;;12.00;99.90;;;;;;4172251;28;20052;-67
2023/04/23 06:21:04;;;;;;;14.50;10.70;;;12.00;99.90;;;;;;4170887;28;20122;-67
2023/04/23 06:23:05;;;;;;;15.65;10.70;;;12.00;99.90;;;;;;4171673;28;20468;-67
2023/04/23 06:25:06;;;;;;;15.82;10.50;;;12.10;99.90;;;;;;4173915;28;20137;-68
2023/04/23 06:27:07;;;;;;;16.25;11.38;;;12.10;99.90;;;;;;4175910;28;20037;-67
2023/04/23 06:29:07;;;;;;;13.60;9.98;;;12.10;99.90;;;;;;4175340;28;20083;-67
2023/04/23 06:31:08;;;;;;;13.65;9.55;;;12.20;99.90;;;;;;4172544;28;20037;-68
2023/04/23 06:33:09;;;;;;;13.40;10.02;;;12.20;99.90;;;;;;4173047;28;20033;-68
2023/04/23 06:35:10;;;;;;;13.48;9.45;;;12.20;99.90;;;;;;4175463;28;20098;-69
2023/04/23 06:37:10;;;;;;;16.65;10.38;;;12.20;99.90;;;;;;4172670;28;20036;-68
2023/04/23 06:39:11;;;;;;;13.82;10.10;;;12.20;99.90;;;;;;4174838;28;20033;-68
2023/04/23 06:41:12;;;;;;;13.95;10.00;;;12.30;99.90;;;;;;4174214;28;20102;-68
2023/04/23 06:43:13;;;;;;;14.48;10.30;;;12.40;99.90;;;;;;4174470;28;20033;-68
2023/04/23 06:45:14;;;;;;;14.48;10.20;;;12.50;99.90;;;;;;4172987;28;20053;-68
2023/04/23 06:47:15;;;;;;;14.35;10.13;;;12.70;99.90;;;;;;4174560;28;20124;-67
2023/04/23 06:49:15;;;;;;;12.80;9.35;;;12.90;99.90;;;;;;4175892;28;20468;-68
2023/04/23 06:51:16;;;;;;;12.18;8.93;;;13.20;99.90;;;;;;4172698;28;20048;-68
2023/04/23 06:53:17;;;;;;;11.63;8.52;;;13.60;99.90;;;;;;4159516;28;20490;-69
2023/04/23 06:55:17;;;;;;;12.48;8.43;;;13.90;99.90;;;;;;4174233;28;20029;-68
2023/04/23 06:57:18;;;;;;;13.35;9.38;;;14.30;99.90;;;;;;4175685;28;20029;-68
2023/04/23 06:59:19;;;;;;;13.45;8.80;;;14.50;99.90;;;;;;4175684;28;20116;-68
2023/04/23 07:01:19;;;;;;;10.48;8.15;;;14.80;99.90;;;;;;4173055;28;20476;-68
2023/04/23 07:03:20;;;;;;;8.88;7.20;;;15.10;99.90;;;;;;4163452;28;20280;-68
2023/04/23 07:05:21;;;;;;;11.23;7.78;;;15.40;99.90;;;;;;4165662;28;20136;-67
2023/04/23 07:07:21;;;;;;;7.53;5.97;;;15.60;99.90;;;;;;4155567;28;20050;-67
2023/04/23 07:09:26;;;;;;;8.18;6.15;;;15.90;99.90;;;;;;4159315;28;20089;-68
2023/04/23 07:11:28;;;;;;;8.30;6.03;;;16.30;99.90;;;;;;4159882;28;20138;-68
2023/04/23 07:13:29;;;;;;;11.07;7.03;;;16.50;99.90;;;;;;4166851;28;20064;-67
2023/04/23 07:15:29;;;;;;;7.53;6.07;;;16.80;99.90;;;;;;4167272;28;20511;-68
2023/04/23 07:17:30;;;;;;;8.38;5.20;;;16.80;99.90;;;;;;4170642;28;20037;-69
2023/04/23 07:19:31;;;;;;;7.68;5.65;;;16.90;99.90;;;;;;4166297;28;20029;-69
2023/04/23 07:21:31;;;;;;;6.53;5.30;;;17.00;99.90;;;;;;4159809;28;20056;-69
2023/04/23 07:23:32;;;;;;;7.50;5.03;;;17.00;99.90;;;;;;4171947;28;20462;-67
2023/04/23 07:25:33;;;;;;;7.05;4.85;;;17.00;99.90;;;;;;4168088;28;20049;-68
2023/04/23 07:27:34;;;;;;;7.53;4.75;;;17.00;99.90;;;;;;4167676;28;20040;-67
2023/04/23 07:29:35;;;;;;;7.95;4.65;;;17.10;99.90;;;;;;4162548;28;20557;-70
2023/04/23 07:31:38;;;;;;;8.20;5.32;;;17.10;99.90;;;;;;4150357;28;20378;-68
2023/04/23 07:33:39;;;;;;;6.55;4.78;;;17.20;99.90;;;;;;4146344;28;20780;-68
2023/04/23 07:35:39;;;;;;;7.28;5.20;;;17.30;99.90;;;;;;4167639;28;20038;-67
2023/04/23 07:37:40;;;;;;;5.07;4.47;;;17.30;99.90;;;;;;4171112;28;20099;-68
2023/04/23 07:39:40;;;;;;;7.20;4.72;;;17.30;99.90;;;;;;4170934;28;20033;-67
2023/04/23 07:41:41;;;;;;;10.00;5.22;;;17.20;99.90;;;;;;4166854;28;20052;-68
2023/04/23 07:43:45;;;;;;;5.45;4.18;;;17.10;99.90;;;;;;4161632;28;20052;-67
2023/04/23 07:45:46;;;;;;;5.47;4.32;;;17.20;99.90;;;;;;4160776;28;21006;-68
2023/04/23 07:47:49;;;;;;;6.82;5.18;;;17.20;99.90;;;;;;4165432;28;20044;-68
2023/04/23 07:49:49;;;;;;;7.13;4.50;;;17.20;99.90;;;;;;4165165;28;20179;-68
2023/04/23 07:51:50;;;;;;;6.20;4.45;;;17.10;99.90;;;;;;4165040;28;20057;-67
2023/04/23 07:53:53;;;;;;;6.43;4.30;;;17.10;99.90;;;;;;4176453;28;20033;-67
2023/04/23 07:55:55;;;;;;;8.38;4.38;;;17.10;99.90;;;;;;4175181;28;20052;-67
2023/04/23 07:57:56;;;;;;;6.05;4.60;;;17.10;99.90;;;;;;4172852;28;20037;-67
2023/04/23 07:59:56;;;;;;;9.80;4.97;;;17.10;99.90;;;;;;4178503;28;20463;-68
2023/04/23 08:01:57;;;;;;;6.55;4.15;;;17.10;99.90;;;;;;4174233;28;20062;-67
2023/04/23 08:03:59;;;;;;;6.57;4.00;;;17.10;99.90;;;;;;4177031;28;20113;-66
2023/04/23 08:06:00;;;;;;;4.03;3.45;;;17.20;99.90;;;;;;4176682;28;20033;-67
2023/04/23 08:08:03;;;;;;;7.00;3.45;;;17.20;99.90;;;;;;4175340;28;20361;-67
2023/04/23 08:10:05;;;;;;;6.07;3.60;;;17.20;99.90;;;;;;4163277;28;20029;-68
2023/04/23 08:12:05;;;;;;;6.43;3.25;;;17.20;99.90;;;;;;4137811;28;20033;-66
2023/04/23 08:14:06;;;;;;;3.47;2.55;;;17.30;99.90;;;;;;4160973;28;20202;-66
2023/04/23 08:16:07;;;;;;;3.60;2.40;;;17.40;99.90;;;;;;4154004;28;20030;-66
2023/04/23 08:18:07;;;;;;;7.07;2.92;;;17.50;99.90;;;;;;4174906;28;20436;-66
2023/04/23 08:20:08;;;;;;;5.07;2.90;;;17.50;99.90;;;;;;4175925;28;20120;-66
2023/04/23 08:22:09;;;;;;;6.30;3.10;;;17.50;99.90;;;;;;4174108;28;20491;-66
2023/04/23 08:24:10;;;;;;;3.67;2.55;;;17.60;99.90;;;;;;4178137;28;20504;-67
2023/04/23 08:26:10;;;;;;;6.63;2.90;;;17.60;99.90;;;;;;4176911;28;20037;-66
2023/04/23 08:28:11;;;;;;;8.23;3.22;;;17.60;99.90;;;;;;4171639;28;20387;-66
2023/04/23 08:30:12;;;;;;;8.20;2.90;;;17.50;99.90;;;;;;4176264;28;20158;-67
2023/04/23 08:32:12;;;;;;;6.38;2.72;;;17.50;99.90;;;;;;4171968;28;20037;-67
2023/04/23 08:34:14;;;;;;;6.35;2.30;;;17.50;99.90;;;;;;4174027;28;20121;-67
2023/04/23 08:36:14;;;;;;;4.28;2.28;;;17.50;99.90;;;;;;4154464;28;20037;-67
2023/04/23 08:38:15;;;;;;;5.70;2.53;;;17.60;99.90;;;;;;4154549;28;20456;-67
2023/04/23 08:40:19;;;;;;;8.07;2.83;;;17.70;99.90;;;;;;4168453;28;20511;-66
2023/04/23 08:42:50;;;;;;;9.18;2.90;;;17.70;99.90;;;;;;4171234;28;20127;-66
2023/04/23 08:44:52;;;;;;;4.82;2.28;;;17.80;99.90;;;;;;4147137;28;20051;-67
2023/04/23 08:46:53;;;;;;;5.82;2.55;;;17.80;99.90;;;;;;4169929;28;20125;-65
2023/04/23 08:48:57;;;;;;;5.20;2.38;;;17.80;99.90;;;;;;4157218;28;20121;-65
2023/04/23 08:51:01;;;;;;;5.55;2.50;;;17.90;99.90;;;;;;4176147;28;20040;-65
2023/04/23 08:53:03;;;;;;;3.95;2.30;;;17.90;99.90;;;;;;4173085;28;20058;-65
2023/04/23 08:55:10;;;;;;;3.72;1.90;;;18.00;99.90;;;;;;4148434;28;20037;-67
2023/04/23 08:57:11;;;;;;;5.68;2.40;;;18.00;99.90;;;;;;4173681;28;20107;-65
2023/04/23 08:59:12;;;;;;;6.05;2.10;;;18.10;99.90;;;;;;4159730;28;20047;-65
2023/04/23 09:01:13;;;;;;;4.95;2.00;;;18.10;99.90;;;;;;4149930;28;20073;-65
2023/04/23 09:03:15;;;;;;;5.65;2.40;;;18.10;99.90;;;;;;4176245;28;20265;-65
2023/04/23 09:05:16;;;;;;;;;;;18.20;99.90;;;;;;4176227;28;20993;-65
2023/04/23 09:07:17;;;;;;;5.25;2.28;;;18.20;99.90;;;;;;4173780;28;19917;-65
2023/04/23 09:09:22;;;;;;;6.40;2.38;;;18.30;99.90;;;;;;4174760;28;20060;-65
2023/04/23 09:11:25;;;;;;;3.72;1.55;;;18.30;99.90;;;;;;4169533;28;20061;-65
2023/04/23 09:13:27;;;;;;;5.80;1.92;;;18.30;99.90;;;;;;4156173;28;20053;-67
2023/04/23 09:15:27;;;;;;;4.55;1.95;;;18.30;99.90;;;;;;4167433;28;20048;-66
2023/04/23 09:17:29;;;;;;;6.32;2.05;;;18.40;99.90;;;;;;4171985;28;20029;-65
2023/04/23 09:19:30;;;;;;;5.50;2.30;;;18.40;99.90;;;;;;4172505;28;20065;-65
2023/04/23 09:21:31;;;;;;;7.53;2.40;;;18.40;99.90;;;;;;4167508;28;20055;-65
2023/04/23 09:23:33;;;;;;;4.28;2.00;;;18.40;99.90;;;;;;4170388;28;20120;-65
2023/04/23 09:25:34;;;;;;;6.88;2.22;;;18.40;99.90;;;;;;4167074;28;20045;-65
2023/04/23 09:27:37;;;;;;;6.50;2.10;;;18.50;99.90;;;;;;4155856;28;20051;-65
2023/04/23 09:29:38;;;;;;;7.43;2.25;;;18.50;99.90;;;;;;4170832;28;20090;-65
2023/04/23 09:31:38;;;;;;;3.33;1.85;;;18.50;99.90;;;;;;4165919;28;20044;-65
2023/04/23 09:33:39;;;;;;;8.45;2.45;;;18.50;99.90;;;;;;4171529;28;20446;-65
2023/04/23 09:35:41;;;;;;;6.15;2.53;;;18.50;99.90;;;;;;4170169;28;20045;-65
2023/04/23 09:37:47;;;;;;;5.20;2.13;;;18.60;99.90;;;;;;4169422;28;20472;-64
2023/04/23 09:39:47;;;;;;;5.38;1.77;;;18.50;99.90;;;;;;4169540;28;20136;-64
2023/04/23 09:41:51;;;;;;;6.18;1.85;;;18.60;99.90;;;;;;4166732;28;21103;-65
2023/04/23 09:43:56;;;;;;;4.30;1.45;;;18.60;99.90;;;;;;4168853;28;20045;-65
2023/04/23 09:45:56;;;;;;;4.18;1.50;;;18.60;99.90;;;;;;4169456;28;20033;-64
2023/04/23 09:47:58;;;;;;;8.82;1.58;;;18.60;99.90;;;;;;4168548;28;20708;-64
2023/04/23 09:49:59;;;;;;;6.18;1.75;;;18.60;99.90;;;;;;4169371;28;20372;-64
2023/04/23 09:52:06;;;;;;;5.75;1.95;;;18.60;99.90;;;;;;4166956;28;20072;-64
2023/04/23 09:54:21;;;;;;;6.15;1.48;;;18.60;99.90;;;;;;4167985;28;20124;-65
2023/04/23 09:56:23;;;;;;;8.15;1.67;;;18.50;99.90;;;;;;4170098;28;20149;-64
2023/04/23 09:58:24;;;;;;;5.47;1.80;;;18.60;99.90;;;;;;4167866;28;20072;-65
2023/04/23 10:00:28;;;;;;;3.80;1.15;;;18.70;99.90;;;;;;4170085;28;20654;-65
2023/04/23 10:02:28;;;;;;;3.35;1.35;;;18.70;99.90;;;;;;4171128;28;20060;-65
2023/04/23 10:04:29;;;;;;;4.88;1.65;;;18.70;99.90;;;;;;4170239;28;20387;-65
2023/04/23 10:06:30;;;;;;;3.53;1.42;;;18.80;99.90;;;;;;4169536;28;20100;-64
2023/04/23 10:08:31;;;;;;;3.33;1.55;;;18.80;99.90;;;;;;4170896;28;20072;-64
2023/04/23 10:10:33;;;;;;;5.65;1.25;;;18.90;99.90;;;;;;4170088;28;20476;-65
2023/04/23 10:12:35;;;;;;;5.57;1.63;;;18.80;99.90;;;;;;4168212;28;20033;-65
2023/04/23 10:14:38;;;;;;;5.60;1.45;;;18.90;99.90;;;;;;4167568;28;20140;-64
2023/04/23 10:16:39;;;;;;;3.88;1.23;;;18.90;99.90;;;;;;4168325;28;20040;-64
2023/04/23 10:18:40;;;;;;;6.55;1.50;;;18.90;99.90;;;;;;4169374;28;20040;-65
2023/04/23 10:20:41;;;;;;;3.85;1.45;;;19.00;99.90;;;;;;4170401;28;20435;-65